createdAt,value
2023-01-05T00:00:40.846Z,5.24
2023-01-05T00:02:18.751Z,5.19
2023-01-05T00:03:55.381Z,5.11
2023-01-05T00:05:28.540Z,5.12
2023-01-05T00:07:01.733Z,5.10
2023-01-05T00:08:37.691Z,5.06
2023-01-05T00:10:32.154Z,5.09
2023-01-05T00:12:23.197Z,5.13
2023-01-05T00:14:14.070Z,5.15
2023-01-05T00:16:04.882Z,5.20
2023-01-05T00:17:55.450Z,5.21
2023-01-05T00:19:48.267Z,5.23
2023-01-05T00:21:39.227Z,5.22
2023-01-05T00:23:12.352Z,5.28
2023-01-05T00:24:45.900Z,5.25
2023-01-05T00:26:19.048Z,5.32
2023-01-05T00:27:54.282Z,5.28
2023-01-05T00:29:26.931Z,5.29
2023-01-05T00:31:00.633Z,5.32
2023-01-05T00:32:33.893Z,5.32
2023-01-05T00:34:07.135Z,5.35
2023-01-05T00:35:40.693Z,5.36
2023-01-05T00:37:13.560Z,5.34
2023-01-05T00:38:46.648Z,5.33
2023-01-05T00:40:23.054Z,5.35
2023-01-05T00:41:55.172Z,5.35
2023-01-05T00:43:28.447Z,5.36
2023-01-05T00:45:01.666Z,5.40
2023-01-05T00:46:35.481Z,5.45
2023-01-05T00:48:08.616Z,5.40
2023-01-05T00:49:42.272Z,5.26
2023-01-05T00:51:15.484Z,5.34
2023-01-05T00:52:49.345Z,5.35
2023-01-05T00:54:22.440Z,5.35
2023-01-05T00:56:00.693Z,5.33
2023-01-05T00:57:34.441Z,5.34
2023-01-05T00:59:07.950Z,5.27
2023-01-05T01:00:47.382Z,5.18
2023-01-05T01:02:21.332Z,5.07
2023-01-05T01:03:53.530Z,5.06
2023-01-05T01:05:26.841Z,5.03
2023-01-05T01:07:00.049Z,5.04
2023-01-05T01:08:33.544Z,5.07
2023-01-05T01:10:07.964Z,5.09
2023-01-05T01:11:42.844Z,5.21
2023-01-05T01:13:16.182Z,5.27
2023-01-05T01:14:50.309Z,5.29
2023-01-05T01:16:23.737Z,5.29
2023-01-05T01:17:57.150Z,5.34
2023-01-05T01:19:30.324Z,5.33
2023-01-05T01:21:03.499Z,5.33
2023-01-05T01:22:36.667Z,5.36
2023-01-05T01:24:10.606Z,5.41
2023-01-05T01:25:43.757Z,5.50
2023-01-05T01:27:18.270Z,5.58
2023-01-05T01:28:51.489Z,5.60
2023-01-05T01:30:25.197Z,5.66
2023-01-05T01:31:58.388Z,5.69
2023-01-05T01:33:31.753Z,5.69
2023-01-05T01:35:05.239Z,5.61
2023-01-05T01:36:38.656Z,5.63
2023-01-05T01:38:12.269Z,5.68
2023-01-05T01:39:45.700Z,5.72
2023-01-05T01:41:20.873Z,5.70
2023-01-05T01:42:55.625Z,5.73
2023-01-05T01:44:55.497Z,5.80
2023-01-05T01:46:40.527Z,5.88
2023-01-05T01:48:18.371Z,5.87
2023-01-05T01:49:52.465Z,5.92
2023-01-05T01:51:29.930Z,5.94
2023-01-05T01:53:06.833Z,6.00
2023-01-05T01:54:40.348Z,5.98
2023-01-05T01:56:19.880Z,6.05
2023-01-05T01:57:53.849Z,6.07
2023-01-05T01:59:30.533Z,6.02
2023-01-05T02:01:04.411Z,5.99
2023-01-05T02:02:37.814Z,6.02
2023-01-05T02:04:11.826Z,6.06
2023-01-05T02:05:46.305Z,6.09
2023-01-05T02:07:19.653Z,6.09
2023-01-05T02:08:52.960Z,6.10
2023-01-05T02:10:40.350Z,6.12
2023-01-05T02:12:30.186Z,6.15
2023-01-05T02:14:16.947Z,6.16
2023-01-05T02:16:02.000Z,6.13
2023-01-05T02:17:49.773Z,6.10
2023-01-05T02:20:16.833Z,6.14
2023-01-05T02:22:03.135Z,6.18
2023-01-05T02:24:28.403Z,6.19
2023-01-05T02:26:40.879Z,6.21
2023-01-05T02:28:29.228Z,6.22
2023-01-05T02:30:35.406Z,6.12
2023-01-05T02:32:15.399Z,6.07
2023-01-05T02:34:03.082Z,6.09
2023-01-05T02:35:43.754Z,6.09
2023-01-05T02:37:28.259Z,6.13
2023-01-05T02:39:09.058Z,5.99
2023-01-05T02:40:46.944Z,5.97
2023-01-05T02:42:23.868Z,6.01
2023-01-05T02:43:58.618Z,6.06
2023-01-05T02:45:32.381Z,6.11
2023-01-05T02:47:09.671Z,6.17
2023-01-05T02:48:47.215Z,6.14
2023-01-05T02:50:27.460Z,6.21
2023-01-05T02:52:02.920Z,6.22
2023-01-05T02:53:41.685Z,6.24
2023-01-05T02:55:20.032Z,6.29
2023-01-05T02:56:59.761Z,6.33
2023-01-05T02:58:35.913Z,6.36
2023-01-05T03:00:11.169Z,6.41
2023-01-05T03:01:49.404Z,6.42
2023-01-05T03:03:31.359Z,6.34
2023-01-05T03:05:09.487Z,6.31
2023-01-05T03:06:49.091Z,6.28
2023-01-05T03:08:32.355Z,6.23
2023-01-05T03:10:24.907Z,6.15
2023-01-05T03:12:18.136Z,6.16
2023-01-05T03:13:57.437Z,6.14
2023-01-05T03:15:33.829Z,6.16
2023-01-05T03:17:11.990Z,6.12
2023-01-05T03:19:10.331Z,6.10
2023-01-05T03:20:49.530Z,6.03
2023-01-05T03:22:44.880Z,5.98
2023-01-05T03:24:36.213Z,5.97
2023-01-05T03:26:29.757Z,5.93
2023-01-05T03:28:25.109Z,5.87
2023-01-05T03:30:16.593Z,5.86
2023-01-05T03:32:13.784Z,5.81
2023-01-05T03:34:09.141Z,5.82
2023-01-05T03:35:49.765Z,5.80
2023-01-05T03:37:27.997Z,5.79
2023-01-05T03:39:03.626Z,5.84
2023-01-05T03:40:40.330Z,5.86
2023-01-05T03:42:15.456Z,5.91
2023-01-05T03:43:49.677Z,5.94
2023-01-05T03:45:27.371Z,5.98
2023-01-05T03:47:00.917Z,6.02
2023-01-05T03:48:34.346Z,6.06
2023-01-05T03:50:08.969Z,6.09
2023-01-05T03:51:43.537Z,6.09
2023-01-05T03:53:17.740Z,6.12
2023-01-05T03:54:52.509Z,6.13
2023-01-05T03:56:25.731Z,6.14
2023-01-05T03:58:02.216Z,6.16
2023-01-05T03:59:35.482Z,6.20
2023-01-05T04:01:10.064Z,6.22
2023-01-05T04:02:44.724Z,6.24
2023-01-05T04:04:22.383Z,6.24
2023-01-05T04:05:55.563Z,6.25
2023-01-05T04:07:34.708Z,6.25
2023-01-05T04:09:08.608Z,6.24
2023-01-05T04:10:41.832Z,6.19
2023-01-05T04:12:14.677Z,6.22
2023-01-05T04:13:50.914Z,6.21
2023-01-05T04:15:25.265Z,6.23
2023-01-05T04:17:00.652Z,6.21
2023-01-05T04:18:33.940Z,6.17
2023-01-05T04:20:09.738Z,6.18
2023-01-05T04:21:43.352Z,6.18
2023-01-05T04:23:19.068Z,6.21
2023-01-05T04:24:52.297Z,6.20
2023-01-05T04:26:25.791Z,6.15
2023-01-05T04:27:59.174Z,6.13
2023-01-05T04:29:31.919Z,6.15
2023-01-05T04:31:06.882Z,6.13
2023-01-05T04:32:40.788Z,6.16
2023-01-05T04:34:18.150Z,6.21
2023-01-05T04:35:51.990Z,6.28
2023-01-05T04:37:27.067Z,6.34
2023-01-05T04:39:02.210Z,6.36
2023-01-05T04:40:40.037Z,6.41
2023-01-05T04:42:13.704Z,6.43
2023-01-05T04:43:47.583Z,6.43
2023-01-05T04:45:21.644Z,6.42
2023-01-05T04:46:54.822Z,6.46
2023-01-05T04:48:28.666Z,6.46
2023-01-05T04:50:02.462Z,6.46
2023-01-05T04:51:35.811Z,6.47
2023-01-05T04:53:09.599Z,6.47
2023-01-05T04:54:50.017Z,6.49
2023-01-05T04:56:24.333Z,6.49
2023-01-05T04:58:00.691Z,6.46
2023-01-05T04:59:34.174Z,6.43
2023-01-05T05:01:10.240Z,6.42
2023-01-05T05:02:45.237Z,6.43
2023-01-05T05:04:21.310Z,6.43
2023-01-05T05:05:56.416Z,6.44
2023-01-05T05:07:30.294Z,6.46
2023-01-05T05:09:05.212Z,6.45
2023-01-05T05:10:39.903Z,6.42
2023-01-05T05:12:15.554Z,6.39
2023-01-05T05:13:51.979Z,6.32
2023-01-05T05:15:25.397Z,6.27
2023-01-05T05:16:59.459Z,6.18
2023-01-05T05:18:31.657Z,6.13
2023-01-05T05:20:06.420Z,6.02
2023-01-05T05:21:39.793Z,5.97
2023-01-05T05:23:13.288Z,5.97
2023-01-05T05:24:46.733Z,5.90
2023-01-05T05:26:21.474Z,5.89
2023-01-05T05:27:56.159Z,5.92
2023-01-05T05:29:29.398Z,5.88
2023-01-05T05:31:02.696Z,5.82
2023-01-05T05:32:40.867Z,5.77
2023-01-05T05:34:17.459Z,5.73
2023-01-05T05:35:50.952Z,5.73
2023-01-05T05:37:24.157Z,5.71
2023-01-05T05:38:58.482Z,5.70
2023-01-05T05:40:32.179Z,5.68
2023-01-05T05:42:07.033Z,5.67
2023-01-05T05:43:40.179Z,5.66
2023-01-05T05:45:13.423Z,5.68
2023-01-05T05:46:46.765Z,5.73
2023-01-05T05:48:20.381Z,5.75
2023-01-05T05:49:53.471Z,5.75
2023-01-05T05:51:26.947Z,5.79
2023-01-05T05:53:02.582Z,5.78
2023-01-05T05:54:35.707Z,5.78
2023-01-05T05:56:09.414Z,5.78
2023-01-05T05:57:43.951Z,5.79
2023-01-05T05:59:17.204Z,5.80
2023-01-05T06:00:50.413Z,5.86
2023-01-05T06:02:23.893Z,5.90
2023-01-05T06:03:57.253Z,5.94
2023-01-05T06:05:30.381Z,5.99
2023-01-05T06:07:03.631Z,5.96
2023-01-05T06:08:36.985Z,5.91
2023-01-05T06:10:11.078Z,5.82
2023-01-05T06:11:44.506Z,5.74
2023-01-05T06:13:19.531Z,5.74
2023-01-05T06:14:52.734Z,5.77
2023-01-05T06:16:25.891Z,5.82
2023-01-05T06:17:59.102Z,5.87
2023-01-05T06:19:32.445Z,5.92
2023-01-05T06:21:05.917Z,5.94
2023-01-05T06:22:39.211Z,5.98
2023-01-05T06:24:12.393Z,5.99
2023-01-05T06:25:46.078Z,6.01
2023-01-05T06:27:19.315Z,6.05
2023-01-05T06:28:53.920Z,6.09
2023-01-05T06:30:27.085Z,6.14
2023-01-05T06:32:00.314Z,6.19
2023-01-05T06:33:33.780Z,6.20
2023-01-05T06:35:07.967Z,6.20
2023-01-05T06:36:41.299Z,6.18
2023-01-05T06:38:16.234Z,6.16
2023-01-05T06:39:49.529Z,6.17
2023-01-05T06:41:22.765Z,6.21
2023-01-05T06:42:56.130Z,6.23
2023-01-05T06:44:30.581Z,6.29
2023-01-05T06:46:03.958Z,6.34
2023-01-05T06:47:37.246Z,6.40
2023-01-05T06:49:14.840Z,6.43
2023-01-05T06:50:47.949Z,6.48
2023-01-05T06:52:21.069Z,6.49
2023-01-05T06:53:54.201Z,6.53
2023-01-05T06:55:27.589Z,6.55
2023-01-05T06:57:00.835Z,6.56
2023-01-05T06:58:34.205Z,6.58
2023-01-05T07:00:11.246Z,6.61
2023-01-05T07:01:44.456Z,6.64
2023-01-05T07:03:17.812Z,6.68
2023-01-05T07:04:51.068Z,6.62
2023-01-05T07:06:24.327Z,6.65
2023-01-05T07:07:57.463Z,6.71
2023-01-05T07:09:30.858Z,6.80
2023-01-05T07:11:04.116Z,6.76
2023-01-05T07:12:37.296Z,6.73
2023-01-05T07:14:10.837Z,6.78
2023-01-05T07:15:45.290Z,6.78
2023-01-05T07:17:18.399Z,6.93
2023-01-05T07:18:51.675Z,6.97
2023-01-05T07:20:25.098Z,6.98
2023-01-05T07:21:59.324Z,6.83
2023-01-05T07:23:32.454Z,6.68
2023-01-05T07:25:05.930Z,6.78
2023-01-05T07:26:39.477Z,6.93
2023-01-05T07:28:12.680Z,7.04
2023-01-05T07:29:46.344Z,7.14
2023-01-05T07:31:20.969Z,7.18
2023-01-05T07:32:54.187Z,7.29
2023-01-05T07:34:27.406Z,7.37
2023-01-05T07:36:02.739Z,7.45
2023-01-05T07:37:36.121Z,7.56
2023-01-05T07:39:09.450Z,7.57
2023-01-05T07:40:42.667Z,7.70
2023-01-05T07:42:16.032Z,7.82
2023-01-05T07:43:50.244Z,7.95
2023-01-05T07:45:23.719Z,8.04
2023-01-05T07:46:58.670Z,8.08
2023-01-05T07:48:31.840Z,8.12
2023-01-05T07:50:10.655Z,8.10
2023-01-05T07:51:44.151Z,8.20
2023-01-05T07:53:17.340Z,8.27
2023-01-05T07:54:50.557Z,8.32
2023-01-05T07:56:23.945Z,8.30
2023-01-05T07:57:57.405Z,8.38
2023-01-05T07:59:30.540Z,8.44
2023-01-05T08:01:07.914Z,8.52
2023-01-05T08:02:42.993Z,8.50
2023-01-05T08:04:16.258Z,8.54
2023-01-05T08:05:49.777Z,8.48
2023-01-05T08:07:23.171Z,8.42
2023-01-05T08:08:57.612Z,8.32
2023-01-05T08:10:30.155Z,8.29
2023-01-05T08:12:03.409Z,8.26
2023-01-05T08:13:54.053Z,8.23
2023-01-05T08:15:27.177Z,8.22
2023-01-05T08:17:00.563Z,8.28
2023-01-05T08:18:35.298Z,8.33
2023-01-05T08:20:09.408Z,8.29
2023-01-05T08:21:42.568Z,8.26
2023-01-05T08:23:25.216Z,8.31
2023-01-05T08:24:59.749Z,8.37
2023-01-05T08:26:33.156Z,8.40
2023-01-05T08:28:06.584Z,8.38
2023-01-05T08:29:40.039Z,8.40
2023-01-05T08:31:19.470Z,8.47
2023-01-05T08:32:53.287Z,8.47
2023-01-05T08:34:34.611Z,8.46
2023-01-05T08:36:13.192Z,8.53
2023-01-05T08:37:46.762Z,8.54
2023-01-05T08:39:20.030Z,8.51
2023-01-05T08:40:53.206Z,8.59
2023-01-05T08:42:26.471Z,8.73
2023-01-05T08:44:02.256Z,8.79
2023-01-05T08:45:35.592Z,8.92
2023-01-05T08:47:08.970Z,8.92
2023-01-05T08:48:42.242Z,9.04
2023-01-05T08:50:16.821Z,9.05
2023-01-05T08:51:50.009Z,9.13
2023-01-05T08:53:23.218Z,9.05
2023-01-05T08:54:56.583Z,9.02
2023-01-05T08:56:34.813Z,9.16
2023-01-05T08:58:11.314Z,9.22
2023-01-05T08:59:44.471Z,9.22
2023-01-05T09:01:19.544Z,9.23
2023-01-05T09:02:53.047Z,9.22
2023-01-05T09:04:27.731Z,9.20
2023-01-05T09:06:03.568Z,9.24
2023-01-05T09:07:38.002Z,9.28
2023-01-05T09:09:11.680Z,9.33
2023-01-05T09:10:45.021Z,9.49
2023-01-05T09:12:18.273Z,9.67
2023-01-05T09:13:54.207Z,9.81
2023-01-05T09:15:27.607Z,9.87
2023-01-05T09:17:08.756Z,10.02
2023-01-05T09:18:43.481Z,10.19
2023-01-05T09:20:16.781Z,10.19
2023-01-05T09:21:52.573Z,10.48
2023-01-05T09:23:25.828Z,10.70
2023-01-05T09:24:59.009Z,11.00
2023-01-05T09:26:32.274Z,11.23
2023-01-05T09:28:05.710Z,11.56
2023-01-05T09:29:38.817Z,11.62
2023-01-05T09:31:13.330Z,11.73
2023-01-05T09:32:46.849Z,11.84
2023-01-05T09:34:20.201Z,11.74
2023-01-05T09:35:56.609Z,11.85
2023-01-05T09:37:31.180Z,11.94
2023-01-05T09:39:05.075Z,11.92
2023-01-05T09:40:42.196Z,12.00
2023-01-05T09:42:18.451Z,12.03
2023-01-05T09:43:56.580Z,11.92
2023-01-05T09:45:30.442Z,11.77
2023-01-05T09:47:06.797Z,11.00
2023-01-05T09:48:43.237Z,11.10
2023-01-05T09:50:21.550Z,11.19
2023-01-05T09:51:59.695Z,11.23
2023-01-05T09:53:35.112Z,11.35
2023-01-05T09:55:17.824Z,11.42
2023-01-05T09:57:09.245Z,11.50
2023-01-05T09:58:45.494Z,11.54
2023-01-05T10:00:19.550Z,11.54
2023-01-05T10:01:55.784Z,11.53
2023-01-05T10:04:02.276Z,11.45
2023-01-05T10:05:25.124Z,11.48
2023-01-05T10:07:02.992Z,11.53
2023-01-05T10:08:41.907Z,11.66
2023-01-05T10:10:30.405Z,11.73
2023-01-05T10:12:31.675Z,11.67
2023-01-05T10:14:11.065Z,11.84
2023-01-05T10:15:49.581Z,11.99
2023-01-05T10:17:44.998Z,11.82
2023-01-05T10:19:19.990Z,11.87
2023-01-05T10:21:11.170Z,11.91
2023-01-05T10:22:54.085Z,11.94
2023-01-05T10:24:38.480Z,11.96
2023-01-05T10:26:18.769Z,11.99
2023-01-05T10:27:59.510Z,12.02
2023-01-05T10:29:40.435Z,12.05
2023-01-05T10:31:23.924Z,12.06
2023-01-05T10:34:59.046Z,12.17
2023-01-05T10:38:49.529Z,12.34
2023-01-05T10:40:35.761Z,12.42
2023-01-05T10:42:15.991Z,12.59
2023-01-05T10:44:09.276Z,12.74
2023-01-05T10:46:11.154Z,12.87
2023-01-05T10:47:39.463Z,12.98
2023-01-05T10:49:18.678Z,13.05
2023-01-05T10:50:55.646Z,12.93
2023-01-05T10:52:28.839Z,12.92
2023-01-05T10:54:04.400Z,12.90
2023-01-05T10:55:51.325Z,13.00
2023-01-05T10:57:48.507Z,13.04
2023-01-05T10:59:22.041Z,13.02
2023-01-05T11:00:58.036Z,13.09
2023-01-05T11:02:35.561Z,13.16
2023-01-05T11:06:09.395Z,13.23
2023-01-05T11:07:50.497Z,13.20
2023-01-05T11:09:26.750Z,13.15
2023-01-05T11:11:03.012Z,13.10
2023-01-05T11:12:36.491Z,13.11
2023-01-05T11:14:16.412Z,13.16
2023-01-05T11:15:54.955Z,13.22
2023-01-05T11:17:30.327Z,13.28
2023-01-05T11:19:07.929Z,13.32
2023-01-05T11:21:02.239Z,13.32
2023-01-05T11:22:39.929Z,13.20
2023-01-05T11:24:29.313Z,13.29
2023-01-05T11:26:21.389Z,13.35
2023-01-05T11:28:12.800Z,13.36
2023-01-05T11:29:46.266Z,13.42
2023-01-05T11:31:19.569Z,13.46
2023-01-05T11:32:52.809Z,13.52
2023-01-05T11:34:38.168Z,13.53
2023-01-05T11:36:16.234Z,13.65
2023-01-05T11:37:50.780Z,13.68
2023-01-05T11:39:30.169Z,13.72
2023-01-05T11:41:03.667Z,13.77
2023-01-05T11:42:42.846Z,13.83
2023-01-05T11:44:22.467Z,13.91
2023-01-05T11:45:57.217Z,13.99
2023-01-05T11:47:43.167Z,14.09
2023-01-05T11:49:20.697Z,14.22
2023-01-05T11:50:57.707Z,14.34
2023-01-05T11:52:36.850Z,14.49
2023-01-05T11:54:33.937Z,14.56
2023-01-05T11:56:20.046Z,14.67
2023-01-05T11:58:00.048Z,14.80
2023-01-05T11:59:33.558Z,14.91
2023-01-05T12:01:34.305Z,15.04
2023-01-05T12:03:29.866Z,15.17
2023-01-05T12:05:20.094Z,15.19
2023-01-05T12:07:05.857Z,15.26
2023-01-05T12:08:47.946Z,15.33
2023-01-05T12:10:36.589Z,15.37
2023-01-05T12:12:27.165Z,15.42
2023-01-05T12:14:21.271Z,15.46
2023-01-05T12:16:06.724Z,15.51
2023-01-05T12:17:50.718Z,15.50
2023-01-05T12:19:55.468Z,15.47
2023-01-05T12:21:32.372Z,15.51
2023-01-05T12:23:36.203Z,15.53
2023-01-05T12:25:30.237Z,15.54
2023-01-05T12:27:17.713Z,15.57
2023-01-05T12:34:01.697Z,15.45
2023-01-05T12:35:30.663Z,15.39
2023-01-05T12:37:18.028Z,15.26
2023-01-05T12:39:03.913Z,15.27
2023-01-05T12:40:50.615Z,15.24
2023-01-05T12:42:42.131Z,15.27
2023-01-05T12:44:43.947Z,15.27
2023-01-05T12:46:40.279Z,15.24
2023-01-05T12:48:18.855Z,15.21
2023-01-05T12:49:56.450Z,15.21
2023-01-05T12:51:35.032Z,15.20
2023-01-05T12:53:19.220Z,15.18
2023-01-05T12:54:57.842Z,15.14
2023-01-05T12:56:37.061Z,15.16
2023-01-05T12:58:18.479Z,15.13
2023-01-05T12:59:58.364Z,15.19
2023-01-05T13:01:36.387Z,15.22
2023-01-05T13:03:19.480Z,15.24
2023-01-05T13:04:57.577Z,15.27
2023-01-05T13:06:37.986Z,15.31
2023-01-05T13:08:18.562Z,15.35
2023-01-05T13:10:02.577Z,15.40
2023-01-05T13:11:39.936Z,15.39
2023-01-05T13:13:17.470Z,15.44
2023-01-05T13:15:03.246Z,15.48
2023-01-05T13:16:41.318Z,15.52
2023-01-05T13:18:18.909Z,15.55
2023-01-05T13:20:01.996Z,15.56
2023-01-05T13:21:38.331Z,15.56
2023-01-05T13:23:17.723Z,15.60
2023-01-05T13:24:56.489Z,15.62
2023-01-05T13:26:37.484Z,15.66
2023-01-05T13:28:20.587Z,15.65
2023-01-05T13:29:59.485Z,15.64
2023-01-05T13:32:09.368Z,15.66
2023-01-05T13:34:00.466Z,15.67
2023-01-05T13:35:47.185Z,15.63
2023-01-05T13:37:39.440Z,15.63
2023-01-05T13:39:30.817Z,15.57
2023-01-05T13:41:18.919Z,15.55
2023-01-05T13:43:15.365Z,15.54
2023-01-05T13:45:14.344Z,15.58
2023-01-05T13:47:03.024Z,15.58
2023-01-05T13:49:06.918Z,15.64
2023-01-05T13:50:57.100Z,15.61
2023-01-05T13:52:47.082Z,15.57
2023-01-05T13:54:26.870Z,15.52
2023-01-05T13:56:03.903Z,15.48
2023-01-05T13:57:40.186Z,15.48
2023-01-05T13:59:34.519Z,15.43
2023-01-05T14:01:15.020Z,15.40
2023-01-05T14:03:07.314Z,15.37
2023-01-05T14:04:47.526Z,15.33
2023-01-05T14:06:24.757Z,15.31
2023-01-05T14:08:00.540Z,15.25
2023-01-05T14:09:39.504Z,15.24
2023-01-05T14:11:15.946Z,15.26
2023-01-05T14:12:51.316Z,15.28
2023-01-05T14:16:39.104Z,15.33
2023-01-05T14:18:14.372Z,15.36
2023-01-05T14:19:53.755Z,15.36
2023-01-05T14:22:00.460Z,15.37
2023-01-05T14:23:59.596Z,15.33
2023-01-05T14:25:49.667Z,15.26
2023-01-05T14:27:23.745Z,15.21
2023-01-05T14:28:56.913Z,15.16
2023-01-05T14:30:30.781Z,15.07
2023-01-05T14:32:08.860Z,14.98
2023-01-05T14:33:51.045Z,14.90
2023-01-05T14:35:31.952Z,14.86
2023-01-05T14:37:07.929Z,14.81
2023-01-05T14:38:49.221Z,14.68
2023-01-05T14:40:30.119Z,14.63
2023-01-05T14:42:09.635Z,14.55
2023-01-05T14:43:42.948Z,14.45
2023-01-05T14:45:23.970Z,14.33
2023-01-05T14:46:58.689Z,14.29
2023-01-05T14:48:34.851Z,14.22
2023-01-05T14:50:31.030Z,14.14
2023-01-05T14:52:06.416Z,14.09
2023-01-05T14:53:45.078Z,14.01
2023-01-05T14:55:37.157Z,13.96
2023-01-05T14:57:39.750Z,13.87
2023-01-05T14:59:22.163Z,13.80
2023-01-05T15:00:58.308Z,13.77
2023-01-05T15:02:36.183Z,13.74
2023-01-05T15:04:14.225Z,13.66
2023-01-05T15:05:56.735Z,13.62
2023-01-05T15:09:44.324Z,13.43
2023-01-05T15:11:44.827Z,13.40
2023-01-05T15:14:07.500Z,13.28
2023-01-05T15:15:47.625Z,13.17
2023-01-05T15:17:48.459Z,13.06
2023-01-05T15:19:48.562Z,12.93
2023-01-05T15:21:49.606Z,12.81
2023-01-05T15:24:10.744Z,12.68
2023-01-05T15:26:07.958Z,12.53
2023-01-05T15:27:59.175Z,12.35
2023-01-05T15:29:52.415Z,12.21
2023-01-05T15:31:40.141Z,12.10
2023-01-05T15:33:17.828Z,12.03
2023-01-05T15:34:56.569Z,11.96
2023-01-05T15:36:39.981Z,11.91
2023-01-05T15:38:24.693Z,11.81
2023-01-05T15:40:00.939Z,11.76
2023-01-05T15:41:34.556Z,11.74
2023-01-05T15:43:16.771Z,11.70
2023-01-05T15:44:52.616Z,11.61
2023-01-05T15:46:34.032Z,11.48
2023-01-05T15:48:11.214Z,11.38
2023-01-05T15:49:46.102Z,11.31
2023-01-05T15:51:28.046Z,11.25
2023-01-05T15:53:03.505Z,11.21
2023-01-05T15:54:36.950Z,11.18
2023-01-05T15:56:39.776Z,11.18
2023-01-05T15:58:16.790Z,11.16
2023-01-05T15:59:52.031Z,11.17
2023-01-05T16:01:27.572Z,11.18
2023-01-05T16:03:01.342Z,11.16
2023-01-05T16:04:35.351Z,11.07
2023-01-05T16:06:14.929Z,10.96
2023-01-05T16:08:06.522Z,10.80
2023-01-05T16:09:42.654Z,10.66
2023-01-05T16:11:20.702Z,10.55
2023-01-05T16:13:00.135Z,10.46
2023-01-05T16:14:39.324Z,10.36
2023-01-05T16:16:50.479Z,10.27
2023-01-05T16:18:26.800Z,10.25
2023-01-05T16:20:02.772Z,10.22
2023-01-05T16:21:41.796Z,10.17
2023-01-05T16:23:18.722Z,10.13
2023-01-05T16:25:00.637Z,10.11
2023-01-05T16:26:37.561Z,10.04
2023-01-05T16:28:18.064Z,9.92
2023-01-05T16:30:31.386Z,9.84
2023-01-05T16:34:38.076Z,9.62
2023-01-05T16:36:19.191Z,9.57
2023-01-05T16:38:17.344Z,9.51
2023-01-05T16:39:52.363Z,9.44
2023-01-05T16:41:28.554Z,9.38
2023-01-05T16:43:01.331Z,9.29
2023-01-05T16:44:36.590Z,9.19
2023-01-05T16:46:35.570Z,9.14
2023-01-05T16:48:47.064Z,9.04
2023-01-05T16:50:54.097Z,8.94
2023-01-05T16:52:35.912Z,8.88
2023-01-05T16:54:22.688Z,8.85
2023-01-05T16:55:59.543Z,8.76
2023-01-05T16:57:41.315Z,8.73
2023-01-05T16:59:34.334Z,8.71
2023-01-05T17:01:28.210Z,8.64
2023-01-05T17:03:02.947Z,8.57
2023-01-05T17:04:36.171Z,8.49
2023-01-05T17:06:20.181Z,8.40
2023-01-05T17:08:00.668Z,8.33
2023-01-05T17:09:35.377Z,8.30
2023-01-05T17:11:12.757Z,8.27
2023-01-05T17:12:54.617Z,8.22
2023-01-05T17:14:29.670Z,8.19
2023-01-05T17:16:04.333Z,8.11
2023-01-05T17:17:37.578Z,8.00
2023-01-05T17:19:13.804Z,7.92
2023-01-05T17:20:47.621Z,7.92
2023-01-05T17:22:21.885Z,7.89
2023-01-05T17:23:58.168Z,7.86
2023-01-05T17:25:34.828Z,7.84
2023-01-05T17:27:10.882Z,7.85
2023-01-05T17:28:45.656Z,7.85
2023-01-05T17:30:23.569Z,7.78
2023-01-05T17:31:57.563Z,7.71
2023-01-05T17:33:31.603Z,7.62
2023-01-05T17:36:44.048Z,7.49
2023-01-05T17:38:17.356Z,7.47
2023-01-05T17:39:50.907Z,7.43
2023-01-05T17:41:24.352Z,7.39
2023-01-05T17:42:57.612Z,7.40
2023-01-05T17:44:32.305Z,7.41
2023-01-05T17:46:05.862Z,7.39
2023-01-05T17:47:39.462Z,7.36
2023-01-05T17:49:15.377Z,7.34
2023-01-05T17:50:49.015Z,7.33
2023-01-05T17:52:22.347Z,7.33
2023-01-05T17:53:56.382Z,7.25
2023-01-05T17:55:30.683Z,7.19
2023-01-05T17:57:04.366Z,7.08
2023-01-05T17:58:38.000Z,7.04
2023-01-05T18:00:16.878Z,7.00
2023-01-05T18:01:55.279Z,6.95
2023-01-05T18:03:29.109Z,6.81
2023-01-05T18:05:02.900Z,6.78
2023-01-05T18:06:36.945Z,6.79
2023-01-05T18:08:11.607Z,6.74
2023-01-05T18:09:45.702Z,6.73
2023-01-05T18:11:19.401Z,6.61
2023-01-05T18:12:53.285Z,6.55
2023-01-05T18:14:27.095Z,6.53
2023-01-05T18:16:08.008Z,6.55
2023-01-05T18:17:44.863Z,6.47
2023-01-05T18:19:18.978Z,6.46
2023-01-05T18:21:06.352Z,6.38
2023-01-05T18:22:41.032Z,6.54
2023-01-05T18:24:14.986Z,6.55
2023-01-05T18:27:46.105Z,6.54
2023-01-05T18:29:28.089Z,6.54
2023-01-05T18:31:03.225Z,6.57
2023-01-05T18:32:36.454Z,6.53
2023-01-05T18:34:10.422Z,6.47
2023-01-05T18:35:44.279Z,6.50
2023-01-05T18:37:21.945Z,6.50
2023-01-05T18:38:55.457Z,6.47
2023-01-05T18:40:29.425Z,6.42
2023-01-05T18:42:03.000Z,6.40
2023-01-05T18:43:36.572Z,6.36
2023-01-05T18:45:25.559Z,6.34
2023-01-05T18:47:00.859Z,6.25
2023-01-05T18:48:34.290Z,6.13
2023-01-05T18:50:09.039Z,6.16
2023-01-05T18:51:42.703Z,6.12
2023-01-05T18:53:17.202Z,6.02
2023-01-05T18:54:50.763Z,5.96
2023-01-05T18:56:24.337Z,5.99
2023-01-05T18:57:57.967Z,6.03
2023-01-05T18:59:32.010Z,6.01
2023-01-05T19:01:09.798Z,5.99
2023-01-05T19:02:44.521Z,5.97
2023-01-05T19:04:21.878Z,6.00
2023-01-05T19:05:55.342Z,5.96
2023-01-05T19:07:28.480Z,5.99
2023-01-05T19:09:03.556Z,6.05
2023-01-05T19:10:37.040Z,5.98
2023-01-05T19:12:11.200Z,5.96
2023-01-05T19:13:45.505Z,5.84
2023-01-05T19:15:19.021Z,5.81
2023-01-05T19:16:52.565Z,5.77
2023-01-05T19:18:27.660Z,5.81
2023-01-05T19:20:00.838Z,5.81
2023-01-05T19:21:36.105Z,5.81
2023-01-05T19:23:09.401Z,5.79
2023-01-05T19:24:42.811Z,5.74
2023-01-05T19:26:16.017Z,5.71
2023-01-05T19:27:49.347Z,5.60
2023-01-05T19:29:24.750Z,5.48
2023-01-05T19:31:08.318Z,5.44
2023-01-05T19:32:44.657Z,5.39
2023-01-05T19:34:19.995Z,5.37
2023-01-05T19:35:53.445Z,5.33
2023-01-05T19:37:26.800Z,5.31
2023-01-05T19:39:02.051Z,5.32
2023-01-05T19:40:35.779Z,5.32
2023-01-05T19:42:09.602Z,5.33
2023-01-05T19:43:43.740Z,5.27
2023-01-05T19:45:17.349Z,5.35
2023-01-05T19:46:53.429Z,5.26
2023-01-05T19:48:26.660Z,5.29
2023-01-05T19:50:01.721Z,5.31
2023-01-05T19:51:35.393Z,5.33
2023-01-05T19:53:08.821Z,5.32
2023-01-05T19:54:42.916Z,5.25
2023-01-05T19:56:17.261Z,5.15
2023-01-05T19:57:51.172Z,5.11
2023-01-05T19:59:33.191Z,5.01
2023-01-05T20:01:08.066Z,4.93
2023-01-05T20:02:42.270Z,4.89
2023-01-05T20:04:15.820Z,4.84
2023-01-05T20:05:50.838Z,4.88
2023-01-05T20:07:24.087Z,4.88
2023-01-05T20:08:59.690Z,4.91
2023-01-05T20:10:33.163Z,4.93
2023-01-05T20:12:14.515Z,4.93
2023-01-05T20:13:53.271Z,4.94
2023-01-05T20:15:26.516Z,4.88
2023-01-05T20:17:02.578Z,4.90
2023-01-05T20:18:36.679Z,4.89
2023-01-05T20:20:12.292Z,4.89
2023-01-05T20:21:47.531Z,4.93
2023-01-05T20:23:20.879Z,4.75
2023-01-05T20:24:54.350Z,4.84
2023-01-05T20:26:27.611Z,4.73
2023-01-05T20:28:00.770Z,4.69
2023-01-05T20:29:33.984Z,4.73
2023-01-05T20:31:16.788Z,4.72
2023-01-05T20:32:49.944Z,4.56
2023-01-05T20:34:25.395Z,4.53
2023-01-05T20:35:59.216Z,4.58
2023-01-05T20:37:34.234Z,4.59
2023-01-05T20:39:09.543Z,4.59
2023-01-05T20:40:42.769Z,4.65
2023-01-05T20:42:16.885Z,4.73
2023-01-05T20:43:51.429Z,4.74
2023-01-05T20:45:24.583Z,4.82
2023-01-05T20:46:57.910Z,4.91
2023-01-05T20:48:31.309Z,5.01
2023-01-05T20:50:06.300Z,5.08
2023-01-05T20:51:41.267Z,5.19
2023-01-05T20:53:15.987Z,5.20
2023-01-05T20:54:49.972Z,5.31
2023-01-05T20:56:26.453Z,5.38
2023-01-05T20:57:59.712Z,5.43
2023-01-05T20:59:35.353Z,5.40
2023-01-05T21:01:11.047Z,5.43
2023-01-05T21:02:45.534Z,5.51
2023-01-05T21:04:19.389Z,5.49
2023-01-05T21:05:52.691Z,5.43
2023-01-05T21:07:25.881Z,5.39
2023-01-05T21:09:01.708Z,5.38
2023-01-05T21:10:36.020Z,5.36
2023-01-05T21:12:09.719Z,5.34
2023-01-05T21:13:44.334Z,5.33
2023-01-05T21:15:18.018Z,5.35
2023-01-05T21:16:52.949Z,5.33
2023-01-05T21:18:26.780Z,5.27
2023-01-05T21:20:00.041Z,5.24
2023-01-05T21:21:34.695Z,5.26
2023-01-05T21:23:08.045Z,5.33
2023-01-05T21:24:42.676Z,5.41
2023-01-05T21:26:15.926Z,5.47
2023-01-05T21:27:49.711Z,5.47
2023-01-05T21:29:26.111Z,5.50
2023-01-05T21:31:03.277Z,5.53
2023-01-05T21:32:36.369Z,5.55
2023-01-05T21:34:11.693Z,5.54
2023-01-05T21:35:44.967Z,5.49
2023-01-05T21:37:18.117Z,5.51
2023-01-05T21:39:00.963Z,5.55
2023-01-05T21:40:38.148Z,5.58
2023-01-05T21:42:29.135Z,5.62
2023-01-05T21:44:02.293Z,5.67
2023-01-05T21:45:35.530Z,5.73
2023-01-05T21:47:09.715Z,5.77
2023-01-05T21:48:42.825Z,5.80
2023-01-05T21:50:31.312Z,5.82
2023-01-05T21:52:22.855Z,5.86
2023-01-05T21:54:13.371Z,5.93
2023-01-05T21:56:05.913Z,5.96
2023-01-05T21:57:39.057Z,6.01